sensor_id;sensor_type;location;lat;lon;timestamp;P1;durP1;ratioP1;P2;durP2;ratioP2
74519;SDS011;63002;48.134;-1.948;2024-02-04T06:00:51;2.55;;;0.65;;
74519;SDS011;63002;48.134;-1.948;2024-02-04T06:03:16;2.65;;;0.90;;
74519;SDS011;63002;48.134;-1.948;2024-02-04T06:05:42;1.83;;;0.60;;
74519;SDS011;63002;48.134;-1.948;2024-02-04T06:08:08;2.10;;;0.70;;
74519;SDS011;63002;48.134;-1.948;2024-02-04T06:10:33;1.17;;;0.40;;
74519;SDS011;63002;48.134;-1.948;2024-02-04T06:12:59;2.17;;;0.50;;
74519;SDS011;63002;48.134;-1.948;2024-02-04T06:15:25;2.45;;;0.70;;
74519;SDS011;63002;48.134;-1.948;2024-02-04T06:17:50;1.63;;;0.40;;
74519;SDS011;63002;48.134;-1.948;2024-02-04T06:20:16;1.90;;;0.50;;
74519;SDS011;63002;48.134;-1.948;2024-02-04T06:22:42;3.57;;;0.60;;
74519;SDS011;63002;48.134;-1.948;2024-02-04T06:25:07;2.33;;;0.57;;
74519;SDS011;63002;48.134;-1.948;2024-02-04T06:27:33;2.10;;;0.50;;
74519;SDS011;63002;48.134;-1.948;2024-02-04T06:29:59;2.33;;;0.50;;
74519;SDS011;63002;48.134;-1.948;2024-02-04T06:32:25;3.17;;;0.57;;
74519;SDS011;63002;48.134;-1.948;2024-02-04T06:34:51;3.40;;;0.60;;
74519;SDS011;63002;48.134;-1.948;2024-02-04T06:37:17;1.70;;;0.55;;
74519;SDS011;63002;48.134;-1.948;2024-02-04T06:39:42;1.70;;;0.43;;
74519;SDS011;63002;48.134;-1.948;2024-02-04T06:42:08;1.50;;;0.50;;
74519;SDS011;63002;48.134;-1.948;2024-02-04T06:44:34;1.60;;;0.50;;
74519;SDS011;63002;48.134;-1.948;2024-02-04T06:46:59;2.08;;;0.57;;
74519;SDS011;63002;48.134;-1.948;2024-02-04T06:49:25;3.55;;;0.55;;
74519;SDS011;63002;48.134;-1.948;2024-02-04T06:51:51;2.38;;;0.80;;
74519;SDS011;63002;48.134;-1.948;2024-02-04T06:54:21;2.33;;;0.70;;
74519;SDS011;63002;48.134;-1.948;2024-02-04T06:56:48;1.45;;;0.52;;
74519;SDS011;63002;48.134;-1.948;2024-02-04T06:59:13;2.33;;;0.50;;
74519;SDS011;63002;48.134;-1.948;2024-02-04T07:01:39;1.90;;;0.60;;
74519;SDS011;63002;48.134;-1.948;2024-02-04T07:04:05;2.50;;;0.55;;
74519;SDS011;63002;48.134;-1.948;2024-02-04T07:06:30;1.83;;;0.60;;
74519;SDS011;63002;48.134;-1.948;2024-02-04T07:08:56;2.60;;;0.73;;
74519;SDS011;63002;48.134;-1.948;2024-02-04T07:11:21;2.03;;;0.60;;
74519;SDS011;63002;48.134;-1.948;2024-02-04T07:13:47;2.20;;;0.60;;
74519;SDS011;63002;48.134;-1.948;2024-02-04T07:16:13;1.23;;;0.40;;
74519;SDS011;63002;48.134;-1.948;2024-02-04T07:18:39;1.75;;;0.55;;
74519;SDS011;63002;48.134;-1.948;2024-02-04T07:21:04;1.45;;;0.50;;
74519;SDS011;63002;48.134;-1.948;2024-02-04T07:23:30;1.97;;;0.50;;
74519;SDS011;63002;48.134;-1.948;2024-02-04T07:25:56;1.08;;;0.40;;
74519;SDS011;63002;48.134;-1.948;2024-02-04T07:28:21;1.73;;;0.50;;
74519;SDS011;63002;48.134;-1.948;2024-02-04T07:30:47;1.35;;;0.50;;
74519;SDS011;63002;48.134;-1.948;2024-02-04T07:33:13;3.80;;;0.80;;
74519;SDS011;63002;48.134;-1.948;2024-02-04T07:35:38;1.92;;;0.70;;
74519;SDS011;63002;48.134;-1.948;2024-02-04T07:38:04;1.93;;;0.57;;
74519;SDS011;63002;48.134;-1.948;2024-02-04T07:40:30;1.98;;;0.52;;
74519;SDS011;63002;48.134;-1.948;2024-02-04T07:42:56;2.38;;;0.60;;
74519;SDS011;63002;48.134;-1.948;2024-02-04T07:45:22;1.33;;;0.40;;
74519;SDS011;63002;48.134;-1.948;2024-02-04T07:47:48;2.20;;;0.70;;
74519;SDS011;63002;48.134;-1.948;2024-02-04T07:50:13;3.33;;;0.50;;
74519;SDS011;63002;48.134;-1.948;2024-02-04T07:52:39;2.30;;;0.70;;
74519;SDS011;63002;48.134;-1.948;2024-02-04T07:55:05;1.85;;;0.50;;
74519;SDS011;63002;48.134;-1.948;2024-02-04T07:57:30;1.63;;;0.63;;
74519;SDS011;63002;48.134;-1.948;2024-02-04T07:59:56;1.73;;;0.50;;
74519;SDS011;63002;48.134;-1.948;2024-02-04T08:02:22;1.43;;;0.53;;
74519;SDS011;63002;48.134;-1.948;2024-02-04T08:04:48;1.92;;;0.57;;
74519;SDS011;63002;48.134;-1.948;2024-02-04T08:07:13;2.57;;;0.60;;
74519;SDS011;63002;48.134;-1.948;2024-02-04T08:09:39;2.28;;;0.50;;
74519;SDS011;63002;48.134;-1.948;2024-02-04T08:12:05;1.63;;;0.60;;
74519;SDS011;63002;48.134;-1.948;2024-02-04T08:14:31;3.25;;;0.80;;
74519;SDS011;63002;48.134;-1.948;2024-02-04T08:16:56;2.77;;;0.57;;
74519;SDS011;63002;48.134;-1.948;2024-02-04T08:19:22;2.13;;;0.70;;
74519;SDS011;63002;48.134;-1.948;2024-02-04T08:21:48;2.57;;;0.83;;
74519;SDS011;63002;48.134;-1.948;2024-02-04T08:24:13;2.10;;;0.60;;
74519;SDS011;63002;48.134;-1.948;2024-02-04T08:26:39;2.73;;;0.60;;
74519;SDS011;63002;48.134;-1.948;2024-02-04T08:29:05;2.00;;;0.60;;
74519;SDS011;63002;48.134;-1.948;2024-02-04T08:31:31;1.47;;;0.50;;
74519;SDS011;63002;48.134;-1.948;2024-02-04T08:33:58;2.10;;;0.60;;
74519;SDS011;63002;48.134;-1.948;2024-02-04T08:36:24;2.47;;;0.80;;
74519;SDS011;63002;48.134;-1.948;2024-02-04T08:38:50;1.83;;;0.50;;
74519;SDS011;63002;48.134;-1.948;2024-02-04T08:41:16;2.45;;;0.60;;
74519;SDS011;63002;48.134;-1.948;2024-02-04T08:43:41;2.17;;;0.63;;
74519;SDS011;63002;48.134;-1.948;2024-02-04T08:46:07;1.73;;;0.40;;
74519;SDS011;63002;48.134;-1.948;2024-02-04T08:48:33;2.00;;;0.60;;
74519;SDS011;63002;48.134;-1.948;2024-02-04T08:50:59;2.03;;;0.50;;
74519;SDS011;63002;48.134;-1.948;2024-02-04T08:53:25;1.60;;;0.60;;
74519;SDS011;63002;48.134;-1.948;2024-02-04T08:55:50;2.22;;;0.57;;
74519;SDS011;63002;48.134;-1.948;2024-02-04T08:58:16;1.47;;;0.40;;
74519;SDS011;63002;48.134;-1.948;2024-02-04T09:00:42;2.35;;;0.60;;
74519;SDS011;63002;48.134;-1.948;2024-02-04T09:03:07;3.03;;;0.50;;
74519;SDS011;63002;48.134;-1.948;2024-02-04T09:05:33;2.50;;;0.52;;
74519;SDS011;63002;48.134;-1.948;2024-02-04T09:07:59;2.00;;;0.70;;
74519;SDS011;63002;48.134;-1.948;2024-02-04T09:10:24;1.70;;;0.57;;
74519;SDS011;63002;48.134;-1.948;2024-02-04T09:12:50;1.90;;;0.67;;
74519;SDS011;63002;48.134;-1.948;2024-02-04T09:15:16;2.03;;;0.60;;
74519;SDS011;63002;48.134;-1.948;2024-02-04T09:17:41;2.05;;;0.68;;
74519;SDS011;63002;48.134;-1.948;2024-02-04T09:20:07;2.83;;;0.60;;
74519;SDS011;63002;48.134;-1.948;2024-02-04T09:22:33;1.80;;;0.68;;
74519;SDS011;63002;48.134;-1.948;2024-02-04T09:24:59;2.33;;;0.60;;
74519;SDS011;63002;48.134;-1.948;2024-02-04T09:27:25;2.47;;;0.57;;
74519;SDS011;63002;48.134;-1.948;2024-02-04T09:29:51;2.38;;;0.73;;
74519;SDS011;63002;48.134;-1.948;2024-02-04T09:32:17;1.45;;;0.40;;
74519;SDS011;63002;48.134;-1.948;2024-02-04T09:34:43;1.50;;;0.50;;
74519;SDS011;63002;48.134;-1.948;2024-02-04T09:37:08;2.55;;;0.60;;
74519;SDS011;63002;48.134;-1.948;2024-02-04T09:39:34;2.95;;;0.82;;
74519;SDS011;63002;48.134;-1.948;2024-02-04T09:42:00;1.93;;;0.50;;
74519;SDS011;63002;48.134;-1.948;2024-02-04T09:44:26;3.60;;;0.65;;
74519;SDS011;63002;48.134;-1.948;2024-02-04T09:46:53;2.33;;;0.65;;
74519;SDS011;63002;48.134;-1.948;2024-02-04T09:49:19;2.37;;;0.70;;
74519;SDS011;63002;48.134;-1.948;2024-02-04T09:51:46;2.53;;;0.50;;
74519;SDS011;63002;48.134;-1.948;2024-02-04T09:54:11;2.13;;;0.50;;
74519;SDS011;63002;48.134;-1.948;2024-02-04T09:56:41;2.70;;;0.70;;
74519;SDS011;63002;48.134;-1.948;2024-02-04T09:59:07;1.73;;;0.50;;
74519;SDS011;63002;48.134;-1.948;2024-02-04T10:01:33;2.28;;;0.60;;
74519;SDS011;63002;48.134;-1.948;2024-02-04T10:04:01;2.42;;;0.70;;
74519;SDS011;63002;48.134;-1.948;2024-02-04T10:06:27;1.55;;;0.50;;
74519;SDS011;63002;48.134;-1.948;2024-02-04T10:08:53;2.43;;;0.50;;
74519;SDS011;63002;48.134;-1.948;2024-02-04T10:11:18;2.47;;;0.50;;
74519;SDS011;63002;48.134;-1.948;2024-02-04T10:13:48;1.83;;;0.43;;
74519;SDS011;63002;48.134;-1.948;2024-02-04T10:16:15;2.55;;;0.70;;
74519;SDS011;63002;48.134;-1.948;2024-02-04T10:18:44;2.50;;;0.70;;
74519;SDS011;63002;48.134;-1.948;2024-02-04T10:21:29;2.78;;;0.70;;
74519;SDS011;63002;48.134;-1.948;2024-02-04T10:23:55;2.55;;;0.70;;
74519;SDS011;63002;48.134;-1.948;2024-02-04T10:26:22;4.53;;;1.20;;
74519;SDS011;63002;48.134;-1.948;2024-02-04T10:28:48;3.75;;;1.30;;
74519;SDS011;63002;48.134;-1.948;2024-02-04T10:31:14;3.03;;;0.83;;
74519;SDS011;63002;48.134;-1.948;2024-02-04T10:33:40;1.85;;;0.50;;
74519;SDS011;63002;48.134;-1.948;2024-02-04T10:36:06;2.55;;;0.73;;
74519;SDS011;63002;48.134;-1.948;2024-02-04T10:38:32;5.38;;;1.00;;
74519;SDS011;63002;48.134;-1.948;2024-02-04T10:41:01;1.45;;;0.40;;
74519;SDS011;63002;48.134;-1.948;2024-02-04T10:43:34;1.73;;;0.53;;
74519;SDS011;63002;48.134;-1.948;2024-02-04T10:46:18;2.95;;;0.68;;
74519;SDS011;63002;48.134;-1.948;2024-02-04T10:48:48;2.70;;;0.73;;
74519;SDS011;63002;48.134;-1.948;2024-02-04T10:51:19;3.25;;;0.70;;
74519;SDS011;63002;48.134;-1.948;2024-02-04T10:53:50;2.20;;;0.68;;
74519;SDS011;63002;48.134;-1.948;2024-02-04T10:56:19;1.93;;;0.50;;
74519;SDS011;63002;48.134;-1.948;2024-02-04T10:58:49;5.60;;;0.63;;
74519;SDS011;63002;48.134;-1.948;2024-02-04T11:01:17;2.58;;;0.80;;
74519;SDS011;63002;48.134;-1.948;2024-02-04T11:03:43;2.08;;;0.60;;
74519;SDS011;63002;48.134;-1.948;2024-02-04T11:06:11;2.35;;;0.52;;
74519;SDS011;63002;48.134;-1.948;2024-02-04T11:08:38;2.40;;;0.70;;
74519;SDS011;63002;48.134;-1.948;2024-02-04T11:11:04;2.10;;;0.70;;
74519;SDS011;63002;48.134;-1.948;2024-02-04T11:13:30;3.10;;;0.88;;
74519;SDS011;63002;48.134;-1.948;2024-02-04T11:16:00;1.90;;;0.70;;
74519;SDS011;63002;48.134;-1.948;2024-02-04T11:18:35;2.42;;;0.80;;
74519;SDS011;63002;48.134;-1.948;2024-02-04T11:24:12;2.53;;;0.70;;
74519;SDS011;63002;48.134;-1.948;2024-02-04T11:27:11;2.65;;;0.70;;
74519;SDS011;63002;48.134;-1.948;2024-02-04T11:29:38;2.77;;;0.80;;
74519;SDS011;63002;48.134;-1.948;2024-02-04T11:32:05;3.63;;;0.75;;
74519;SDS011;63002;48.134;-1.948;2024-02-04T11:34:31;3.25;;;0.70;;
74519;SDS011;63002;48.134;-1.948;2024-02-04T11:36:59;2.70;;;0.90;;
74519;SDS011;63002;48.134;-1.948;2024-02-04T11:39:25;2.15;;;0.40;;
74519;SDS011;63002;48.134;-1.948;2024-02-04T11:41:51;3.57;;;0.93;;
74519;SDS011;63002;48.134;-1.948;2024-02-04T11:44:23;3.25;;;0.73;;
74519;SDS011;63002;48.134;-1.948;2024-02-04T11:46:50;1.70;;;0.50;;
74519;SDS011;63002;48.134;-1.948;2024-02-04T11:49:16;1.88;;;0.57;;
74519;SDS011;63002;48.134;-1.948;2024-02-04T11:51:44;4.03;;;1.27;;
74519;SDS011;63002;48.134;-1.948;2024-02-04T11:54:13;2.80;;;0.80;;
74519;SDS011;63002;48.134;-1.948;2024-02-04T11:56:40;2.30;;;0.60;;
74519;SDS011;63002;48.134;-1.948;2024-02-04T11:59:06;2.72;;;0.80;;
74519;SDS011;63002;48.134;-1.948;2024-02-04T12:01:33;3.70;;;0.85;;
74519;SDS011;63002;48.134;-1.948;2024-02-04T12:04:08;2.23;;;0.63;;
74519;SDS011;63002;48.134;-1.948;2024-02-04T12:06:35;3.20;;;0.70;;
74519;SDS011;63002;48.134;-1.948;2024-02-04T12:09:02;3.30;;;0.75;;
74519;SDS011;63002;48.134;-1.948;2024-02-04T12:11:29;2.80;;;0.65;;
74519;SDS011;63002;48.134;-1.948;2024-02-04T12:13:55;2.70;;;0.82;;
74519;SDS011;63002;48.134;-1.948;2024-02-04T12:16:21;3.53;;;0.60;;
74519;SDS011;63002;48.134;-1.948;2024-02-04T12:18:48;2.10;;;0.60;;
74519;SDS011;63002;48.134;-1.948;2024-02-04T12:21:14;2.63;;;0.70;;
74519;SDS011;63002;48.134;-1.948;2024-02-04T12:23:40;3.60;;;0.70;;
74519;SDS011;63002;48.134;-1.948;2024-02-04T12:26:05;2.90;;;0.80;;
74519;SDS011;63002;48.134;-1.948;2024-02-04T12:28:31;2.47;;;0.67;;
74519;SDS011;63002;48.134;-1.948;2024-02-04T12:30:57;2.47;;;0.70;;
74519;SDS011;63002;48.134;-1.948;2024-02-04T12:33:24;2.43;;;0.67;;
74519;SDS011;63002;48.134;-1.948;2024-02-04T12:35:50;3.10;;;0.75;;
74519;SDS011;63002;48.134;-1.948;2024-02-04T12:38:17;4.40;;;0.70;;
74519;SDS011;63002;48.134;-1.948;2024-02-04T12:40:43;3.33;;;0.93;;
74519;SDS011;63002;48.134;-1.948;2024-02-04T12:43:10;4.35;;;0.75;;
74519;SDS011;63002;48.134;-1.948;2024-02-04T12:45:36;2.67;;;0.60;;
74519;SDS011;63002;48.134;-1.948;2024-02-04T12:48:02;3.37;;;0.90;;
74519;SDS011;63002;48.134;-1.948;2024-02-04T12:50:28;2.25;;;0.70;;
74519;SDS011;63002;48.134;-1.948;2024-02-04T12:53:27;3.53;;;0.70;;
74519;SDS011;63002;48.134;-1.948;2024-02-04T12:55:46;1.92;;;0.60;;
74519;SDS011;63002;48.134;-1.948;2024-02-04T12:58:13;3.10;;;0.57;;
74519;SDS011;63002;48.134;-1.948;2024-02-04T13:00:42;2.58;;;0.50;;
74519;SDS011;63002;48.134;-1.948;2024-02-04T13:03:08;2.40;;;0.60;;
74519;SDS011;63002;48.134;-1.948;2024-02-04T13:05:34;3.25;;;0.88;;
74519;SDS011;63002;48.134;-1.948;2024-02-04T13:08:01;2.67;;;0.75;;
74519;SDS011;63002;48.134;-1.948;2024-02-04T13:10:30;2.53;;;0.70;;
74519;SDS011;63002;48.134;-1.948;2024-02-04T13:15:30;3.00;;;0.80;;
74519;SDS011;63002;48.134;-1.948;2024-02-04T13:17:57;3.72;;;0.80;;
74519;SDS011;63002;48.134;-1.948;2024-02-04T13:20:24;2.78;;;0.73;;
74519;SDS011;63002;48.134;-1.948;2024-02-04T13:22:49;2.50;;;0.63;;
74519;SDS011;63002;48.134;-1.948;2024-02-04T13:25:16;2.78;;;1.05;;
74519;SDS011;63002;48.134;-1.948;2024-02-04T13:27:41;4.27;;;0.87;;
74519;SDS011;63002;48.134;-1.948;2024-02-04T13:30:07;2.25;;;0.70;;
74519;SDS011;63002;48.134;-1.948;2024-02-04T13:32:38;3.53;;;0.80;;
74519;SDS011;63002;48.134;-1.948;2024-02-04T13:35:05;3.05;;;0.60;;
74519;SDS011;63002;48.134;-1.948;2024-02-04T13:37:33;5.10;;;0.98;;
74519;SDS011;63002;48.134;-1.948;2024-02-04T13:40:03;1.53;;;0.50;;
74519;SDS011;63002;48.134;-1.948;2024-02-04T13:42:31;3.63;;;0.75;;
74519;SDS011;63002;48.134;-1.948;2024-02-04T13:44:58;2.75;;;0.73;;
74519;SDS011;63002;48.134;-1.948;2024-02-04T13:47:24;2.85;;;0.70;;
74519;SDS011;63002;48.134;-1.948;2024-02-04T13:49:50;1.95;;;0.80;;
74519;SDS011;63002;48.134;-1.948;2024-02-04T13:52:15;2.80;;;0.50;;
74519;SDS011;63002;48.134;-1.948;2024-02-04T13:54:41;2.80;;;0.60;;
74519;SDS011;63002;48.134;-1.948;2024-02-04T13:57:07;3.95;;;0.80;;
74519;SDS011;63002;48.134;-1.948;2024-02-04T13:59:32;2.53;;;0.80;;
74519;SDS011;63002;48.134;-1.948;2024-02-04T14:01:58;3.08;;;0.93;;
74519;SDS011;63002;48.134;-1.948;2024-02-04T14:04:24;2.60;;;0.60;;
74519;SDS011;63002;48.134;-1.948;2024-02-04T14:06:52;3.55;;;1.17;;
74519;SDS011;63002;48.134;-1.948;2024-02-04T14:09:18;1.93;;;0.50;;
74519;SDS011;63002;48.134;-1.948;2024-02-04T14:11:44;3.10;;;0.60;;
74519;SDS011;63002;48.134;-1.948;2024-02-04T14:14:09;3.13;;;0.93;;
74519;SDS011;63002;48.134;-1.948;2024-02-04T14:16:35;3.28;;;0.90;;
74519;SDS011;63002;48.134;-1.948;2024-02-04T14:19:01;2.60;;;0.60;;
74519;SDS011;63002;48.134;-1.948;2024-02-04T14:21:26;3.20;;;0.80;;
74519;SDS011;63002;48.134;-1.948;2024-02-04T14:23:52;2.72;;;0.77;;
74519;SDS011;63002;48.134;-1.948;2024-02-04T14:26:18;2.47;;;0.80;;
74519;SDS011;63002;48.134;-1.948;2024-02-04T14:28:44;2.72;;;0.93;;
74519;SDS011;63002;48.134;-1.948;2024-02-04T14:31:10;2.97;;;0.70;;
74519;SDS011;63002;48.134;-1.948;2024-02-04T14:33:35;3.17;;;0.70;;
74519;SDS011;63002;48.134;-1.948;2024-02-04T14:36:01;2.40;;;0.57;;
74519;SDS011;63002;48.134;-1.948;2024-02-04T14:38:27;2.60;;;0.65;;
74519;SDS011;63002;48.134;-1.948;2024-02-04T14:40:52;1.83;;;0.60;;
74519;SDS011;63002;48.134;-1.948;2024-02-04T14:43:18;2.67;;;0.80;;
74519;SDS011;63002;48.134;-1.948;2024-02-04T14:45:46;2.40;;;0.70;;
74519;SDS011;63002;48.134;-1.948;2024-02-04T14:48:12;2.72;;;0.70;;
74519;SDS011;63002;48.134;-1.948;2024-02-04T14:50:38;3.07;;;0.70;;
74519;SDS011;63002;48.134;-1.948;2024-02-04T14:53:04;2.25;;;0.50;;
74519;SDS011;63002;48.134;-1.948;2024-02-04T14:55:31;2.90;;;0.63;;
74519;SDS011;63002;48.134;-1.948;2024-02-04T14:57:57;2.28;;;0.68;;
74519;SDS011;63002;48.134;-1.948;2024-02-04T15:00:24;3.97;;;0.80;;
74519;SDS011;63002;48.134;-1.948;2024-02-04T15:02:51;3.17;;;0.70;;
74519;SDS011;63002;48.134;-1.948;2024-02-04T15:05:17;3.08;;;0.65;;
74519;SDS011;63002;48.134;-1.948;2024-02-04T15:07:43;2.25;;;0.70;;
74519;SDS011;63002;48.134;-1.948;2024-02-04T15:10:09;3.13;;;0.70;;
74519;SDS011;63002;48.134;-1.948;2024-02-04T15:12:38;5.15;;;0.80;;
74519;SDS011;63002;48.134;-1.948;2024-02-04T15:15:05;5.18;;;1.25;;
74519;SDS011;63002;48.134;-1.948;2024-02-04T15:17:31;2.33;;;0.60;;
74519;SDS011;63002;48.134;-1.948;2024-02-04T15:19:58;2.87;;;0.60;;
74519;SDS011;63002;48.134;-1.948;2024-02-04T15:22:24;2.88;;;0.80;;
74519;SDS011;63002;48.134;-1.948;2024-02-04T15:24:50;3.42;;;1.00;;
74519;SDS011;63002;48.134;-1.948;2024-02-04T15:27:17;4.35;;;0.80;;
74519;SDS011;63002;48.134;-1.948;2024-02-04T15:29:43;2.88;;;0.73;;
74519;SDS011;63002;48.134;-1.948;2024-02-04T15:32:11;3.90;;;0.80;;
74519;SDS011;63002;48.134;-1.948;2024-02-04T15:34:38;2.25;;;0.80;;
74519;SDS011;63002;48.134;-1.948;2024-02-04T15:37:05;3.72;;;0.90;;
74519;SDS011;63002;48.134;-1.948;2024-02-04T15:39:31;3.00;;;0.70;;
74519;SDS011;63002;48.134;-1.948;2024-02-04T15:41:58;1.63;;;0.60;;
74519;SDS011;63002;48.134;-1.948;2024-02-04T15:44:24;3.67;;;0.57;;
74519;SDS011;63002;48.134;-1.948;2024-02-04T15:46:50;3.10;;;0.73;;
74519;SDS011;63002;48.134;-1.948;2024-02-04T15:49:19;3.67;;;0.80;;
74519;SDS011;63002;48.134;-1.948;2024-02-04T15:51:45;2.55;;;0.60;;
74519;SDS011;63002;48.134;-1.948;2024-02-04T15:54:11;3.03;;;0.82;;
74519;SDS011;63002;48.134;-1.948;2024-02-04T15:56:41;3.78;;;1.00;;
74519;SDS011;63002;48.134;-1.948;2024-02-04T15:59:12;3.58;;;1.13;;
74519;SDS011;63002;48.134;-1.948;2024-02-04T16:01:38;3.53;;;0.83;;
74519;SDS011;63002;48.134;-1.948;2024-02-04T16:04:07;3.63;;;0.70;;
74519;SDS011;63002;48.134;-1.948;2024-02-04T16:06:34;3.90;;;1.00;;
74519;SDS011;63002;48.134;-1.948;2024-02-04T16:09:00;3.20;;;0.80;;
74519;SDS011;63002;48.134;-1.948;2024-02-04T16:11:28;3.70;;;1.10;;
74519;SDS011;63002;48.134;-1.948;2024-02-04T16:14:04;3.70;;;0.87;;
74519;SDS011;63002;48.134;-1.948;2024-02-04T16:16:34;2.20;;;0.70;;
74519;SDS011;63002;48.134;-1.948;2024-02-04T16:19:02;2.67;;;0.82;;
74519;SDS011;63002;48.134;-1.948;2024-02-04T16:21:30;3.25;;;0.80;;
74519;SDS011;63002;48.134;-1.948;2024-02-04T16:23:55;2.83;;;0.90;;
74519;SDS011;63002;48.134;-1.948;2024-02-04T16:26:21;2.80;;;1.00;;
74519;SDS011;63002;48.134;-1.948;2024-02-04T16:28:47;2.75;;;0.77;;
74519;SDS011;63002;48.134;-1.948;2024-02-04T16:31:13;3.60;;;0.90;;
74519;SDS011;63002;48.134;-1.948;2024-02-04T16:33:39;4.43;;;0.97;;
74519;SDS011;63002;48.134;-1.948;2024-02-04T16:36:05;2.92;;;0.90;;
74519;SDS011;63002;48.134;-1.948;2024-02-04T16:38:32;2.83;;;0.70;;
74519;SDS011;63002;48.134;-1.948;2024-02-04T16:40:59;3.55;;;0.80;;
74519;SDS011;63002;48.134;-1.948;2024-02-04T16:43:24;3.78;;;0.95;;
74519;SDS011;63002;48.134;-1.948;2024-02-04T16:45:50;3.87;;;0.90;;
74519;SDS011;63002;48.134;-1.948;2024-02-04T16:48:15;3.35;;;0.70;;
74519;SDS011;63002;48.134;-1.948;2024-02-04T16:50:41;3.80;;;0.80;;
74519;SDS011;63002;48.134;-1.948;2024-02-04T16:53:07;3.83;;;0.73;;
74519;SDS011;63002;48.134;-1.948;2024-02-04T16:55:33;13.38;;;3.13;;
74519;SDS011;63002;48.134;-1.948;2024-02-04T16:57:59;11.57;;;2.37;;
74519;SDS011;63002;48.134;-1.948;2024-02-04T17:00:24;14.73;;;2.60;;
74519;SDS011;63002;48.134;-1.948;2024-02-04T17:02:51;15.90;;;3.22;;
74519;SDS011;63002;48.134;-1.948;2024-02-04T17:05:18;17.00;;;3.50;;
74519;SDS011;63002;48.134;-1.948;2024-02-04T17:07:44;25.38;;;3.53;;
74519;SDS011;63002;48.134;-1.948;2024-02-04T17:10:10;14.13;;;2.92;;
74519;SDS011;63002;48.134;-1.948;2024-02-04T17:12:37;13.30;;;2.93;;
74519;SDS011;63002;48.134;-1.948;2024-02-04T17:15:04;18.05;;;2.88;;
74519;SDS011;63002;48.134;-1.948;2024-02-04T17:17:30;11.30;;;3.05;;
74519;SDS011;63002;48.134;-1.948;2024-02-04T17:22:31;16.00;;;2.97;;
74519;SDS011;63002;48.134;-1.948;2024-02-04T17:25:01;18.20;;;3.33;;
74519;SDS011;63002;48.134;-1.948;2024-02-04T17:27:31;16.42;;;3.20;;
74519;SDS011;63002;48.134;-1.948;2024-02-04T17:29:59;9.32;;;2.58;;
74519;SDS011;63002;48.134;-1.948;2024-02-04T17:32:26;13.20;;;4.22;;
74519;SDS011;63002;48.134;-1.948;2024-02-04T17:34:54;12.32;;;3.70;;
74519;SDS011;63002;48.134;-1.948;2024-02-04T17:37:20;13.37;;;3.37;;
74519;SDS011;63002;48.134;-1.948;2024-02-04T17:39:46;10.73;;;3.10;;
74519;SDS011;63002;48.134;-1.948;2024-02-04T17:42:12;11.55;;;2.65;;
74519;SDS011;63002;48.134;-1.948;2024-02-04T17:44:38;8.93;;;2.40;;
74519;SDS011;63002;48.134;-1.948;2024-02-04T17:47:05;12.27;;;2.80;;
74519;SDS011;63002;48.134;-1.948;2024-02-04T17:49:31;8.38;;;2.13;;
74519;SDS011;63002;48.134;-1.948;2024-02-04T17:51:57;9.15;;;2.42;;
74519;SDS011;63002;48.134;-1.948;2024-02-04T17:54:23;12.25;;;3.13;;
74519;SDS011;63002;48.134;-1.948;2024-02-04T17:56:50;8.80;;;2.58;;
74519;SDS011;63002;48.134;-1.948;2024-02-04T17:59:17;10.43;;;2.70;;
74519;SDS011;63002;48.134;-1.948;2024-02-04T18:01:44;9.35;;;2.55;;
74519;SDS011;63002;48.134;-1.948;2024-02-04T18:04:09;9.77;;;2.50;;
74519;SDS011;63002;48.134;-1.948;2024-02-04T18:06:38;7.78;;;1.73;;
74519;SDS011;63002;48.134;-1.948;2024-02-04T18:09:05;13.15;;;2.25;;
74519;SDS011;63002;48.134;-1.948;2024-02-04T18:11:34;11.07;;;3.00;;
74519;SDS011;63002;48.134;-1.948;2024-02-04T18:14:00;10.70;;;3.13;;
74519;SDS011;63002;48.134;-1.948;2024-02-04T18:16:29;9.95;;;2.30;;
74519;SDS011;63002;48.134;-1.948;2024-02-04T18:18:56;11.00;;;2.78;;
74519;SDS011;63002;48.134;-1.948;2024-02-04T18:21:23;11.32;;;2.67;;
74519;SDS011;63002;48.134;-1.948;2024-02-04T18:23:50;11.30;;;3.97;;
74519;SDS011;63002;48.134;-1.948;2024-02-04T18:28:46;12.65;;;3.22;;
74519;SDS011;63002;48.134;-1.948;2024-02-04T18:31:13;10.35;;;2.40;;
74519;SDS011;63002;48.134;-1.948;2024-02-04T18:33:39;9.57;;;2.55;;
74519;SDS011;63002;48.134;-1.948;2024-02-04T18:36:05;11.97;;;2.90;;
74519;SDS011;63002;48.134;-1.948;2024-02-04T18:38:31;9.27;;;1.92;;
74519;SDS011;63002;48.134;-1.948;2024-02-04T18:40:57;13.18;;;2.72;;
74519;SDS011;63002;48.134;-1.948;2024-02-04T18:43:23;9.95;;;2.40;;
74519;SDS011;63002;48.134;-1.948;2024-02-04T18:45:49;7.93;;;1.80;;
74519;SDS011;63002;48.134;-1.948;2024-02-04T18:48:15;10.25;;;2.92;;
74519;SDS011;63002;48.134;-1.948;2024-02-04T18:50:41;9.93;;;2.20;;
74519;SDS011;63002;48.134;-1.948;2024-02-04T18:53:06;8.27;;;2.20;;
74519;SDS011;63002;48.134;-1.948;2024-02-04T18:55:32;9.70;;;2.50;;
74519;SDS011;63002;48.134;-1.948;2024-02-04T18:57:59;10.33;;;2.53;;
74519;SDS011;63002;48.134;-1.948;2024-02-04T19:00:24;8.68;;;2.20;;
74519;SDS011;63002;48.134;-1.948;2024-02-04T19:02:50;9.52;;;2.03;;
74519;SDS011;63002;48.134;-1.948;2024-02-04T19:05:16;9.07;;;2.27;;
74519;SDS011;63002;48.134;-1.948;2024-02-04T19:07:41;8.30;;;2.15;;
74519;SDS011;63002;48.134;-1.948;2024-02-04T19:10:07;7.77;;;2.23;;
74519;SDS011;63002;48.134;-1.948;2024-02-04T19:12:34;11.80;;;1.98;;
74519;SDS011;63002;48.134;-1.948;2024-02-04T19:15:00;9.70;;;2.10;;
74519;SDS011;63002;48.134;-1.948;2024-02-04T19:17:28;9.77;;;2.00;;
74519;SDS011;63002;48.134;-1.948;2024-02-04T19:19:56;7.60;;;2.03;;
74519;SDS011;63002;48.134;-1.948;2024-02-04T19:22:21;9.80;;;1.70;;
74519;SDS011;63002;48.134;-1.948;2024-02-04T19:24:50;10.73;;;3.93;;
74519;SDS011;63002;48.134;-1.948;2024-02-04T19:27:19;18.48;;;3.42;;
74519;SDS011;63002;48.134;-1.948;2024-02-04T19:29:45;10.43;;;2.80;;
74519;SDS011;63002;48.134;-1.948;2024-02-04T19:32:11;12.40;;;3.63;;
74519;SDS011;63002;48.134;-1.948;2024-02-04T19:34:37;11.40;;;2.90;;
74519;SDS011;63002;48.134;-1.948;2024-02-04T19:37:03;13.85;;;3.55;;
74519;SDS011;63002;48.134;-1.948;2024-02-04T19:39:30;12.48;;;4.03;;
74519;SDS011;63002;48.134;-1.948;2024-02-04T19:41:56;15.20;;;3.95;;
74519;SDS011;63002;48.134;-1.948;2024-02-04T19:44:23;10.45;;;2.95;;
74519;SDS011;63002;48.134;-1.948;2024-02-04T19:46:49;13.02;;;3.95;;
74519;SDS011;63002;48.134;-1.948;2024-02-04T19:49:15;12.17;;;3.30;;
74519;SDS011;63002;48.134;-1.948;2024-02-04T19:51:42;9.13;;;2.67;;
74519;SDS011;63002;48.134;-1.948;2024-02-04T19:54:08;11.70;;;2.90;;
74519;SDS011;63002;48.134;-1.948;2024-02-04T19:56:34;8.80;;;2.70;;
74519;SDS011;63002;48.134;-1.948;2024-02-04T19:59:01;7.88;;;2.40;;
74519;SDS011;63002;48.134;-1.948;2024-02-04T20:01:30;10.23;;;2.97;;
74519;SDS011;63002;48.134;-1.948;2024-02-04T20:03:57;9.45;;;2.15;;
74519;SDS011;63002;48.134;-1.948;2024-02-04T20:06:23;10.17;;;2.50;;
74519;SDS011;63002;48.134;-1.948;2024-02-04T20:08:48;11.95;;;2.97;;
74519;SDS011;63002;48.134;-1.948;2024-02-04T20:11:14;9.87;;;2.53;;
74519;SDS011;63002;48.134;-1.948;2024-02-04T20:13:40;16.40;;;2.72;;
74519;SDS011;63002;48.134;-1.948;2024-02-04T20:16:10;11.83;;;2.60;;
74519;SDS011;63002;48.134;-1.948;2024-02-04T20:18:37;36.75;;;10.48;;
74519;SDS011;63002;48.134;-1.948;2024-02-04T20:21:03;54.42;;;17.13;;
74519;SDS011;63002;48.134;-1.948;2024-02-04T20:23:29;67.45;;;19.17;;
74519;SDS011;63002;48.134;-1.948;2024-02-04T20:25:55;49.37;;;15.00;;
74519;SDS011;63002;48.134;-1.948;2024-02-04T20:28:24;31.67;;;9.50;;
74519;SDS011;63002;48.134;-1.948;2024-02-04T20:30:50;20.95;;;6.30;;
74519;SDS011;63002;48.134;-1.948;2024-02-04T20:33:16;15.23;;;5.20;;
74519;SDS011;63002;48.134;-1.948;2024-02-04T20:35:42;17.10;;;4.80;;
74519;SDS011;63002;48.134;-1.948;2024-02-04T20:38:08;14.23;;;3.72;;
74519;SDS011;63002;48.134;-1.948;2024-02-04T20:40:34;12.05;;;3.67;;